sensor_id;sensor_type;location;lat;lon;timestamp;pressure;altitude;pressure_sealevel;temperature;humidity
43503;BME280;29098;48.184;16.298;2023-02-11T00:01:19;101301.03;;;-0.03;64.95
43503;BME280;29098;48.184;16.298;2023-02-11T00:03:44;101295.50;;;-0.16;65.52
43503;BME280;29098;48.184;16.298;2023-02-11T00:06:10;101301.03;;;-0.03;65.04
43503;BME280;29098;48.184;16.298;2023-02-11T00:08:36;101298.38;;;-0.01;64.62
43503;BME280;29098;48.184;16.298;2023-02-11T00:11:02;101305.06;;;-0.16;65.65
43503;BME280;29098;48.184;16.298;2023-02-11T00:13:27;101297.72;;;-0.27;66.07
43503;BME280;29098;48.184;16.298;2023-02-11T00:15:53;101296.28;;;-0.34;66.38
43503;BME280;29098;48.184;16.298;2023-02-11T00:18:19;101297.44;;;-0.42;66.73
43503;BME280;29098;48.184;16.298;2023-02-11T00:20:44;101291.66;;;-0.48;67.11
43503;BME280;29098;48.184;16.298;2023-02-11T00:23:10;101303.34;;;-0.60;67.58
43503;BME280;29098;48.184;16.298;2023-02-11T00:25:41;101298.19;;;-0.60;67.43
43503;BME280;29098;48.184;16.298;2023-02-11T00:28:07;101302.69;;;-0.65;67.74
43503;BME280;29098;48.184;16.298;2023-02-11T00:30:33;101305.94;;;-0.60;67.70
43503;BME280;29098;48.184;16.298;2023-02-11T00:32:58;101293.28;;;-0.68;67.96
43503;BME280;29098;48.184;16.298;2023-02-11T00:35:24;101297.00;;;-0.75;68.18
43503;BME280;29098;48.184;16.298;2023-02-11T00:37:51;101283.53;;;-0.84;68.33
43503;BME280;29098;48.184;16.298;2023-02-11T00:40:16;101291.25;;;-0.82;68.28
43503;BME280;29098;48.184;16.298;2023-02-11T00:42:42;101279.94;;;-0.79;68.30
43503;BME280;29098;48.184;16.298;2023-02-11T00:45:07;101282.19;;;-0.94;68.82
43503;BME280;29098;48.184;16.298;2023-02-11T00:47:34;101280.81;;;-1.03;69.27
43503;BME280;29098;48.184;16.298;2023-02-11T00:49:59;101286.03;;;-1.04;69.20
43503;BME280;29098;48.184;16.298;2023-02-11T00:52:25;101286.84;;;-1.02;69.50
43503;BME280;29098;48.184;16.298;2023-02-11T00:54:50;101288.53;;;-1.01;69.28
43503;BME280;29098;48.184;16.298;2023-02-11T00:57:16;101280.31;;;-1.13;69.45
43503;BME280;29098;48.184;16.298;2023-02-11T00:59:41;101282.97;;;-1.14;69.83
43503;BME280;29098;48.184;16.298;2023-02-11T01:02:06;101278.84;;;-1.20;70.14
43503;BME280;29098;48.184;16.298;2023-02-11T01:04:32;101272.53;;;-1.13;69.98
43503;BME280;29098;48.184;16.298;2023-02-11T01:06:57;101281.78;;;-1.29;70.39
43503;BME280;29098;48.184;16.298;2023-02-11T01:09:22;101275.88;;;-1.33;70.97
43503;BME280;29098;48.184;16.298;2023-02-11T01:11:48;101267.09;;;-1.29;70.76
43503;BME280;29098;48.184;16.298;2023-02-11T01:14:13;101271.09;;;-1.44;71.30
43503;BME280;29098;48.184;16.298;2023-02-11T01:16:39;101267.69;;;-1.44;71.06
43503;BME280;29098;48.184;16.298;2023-02-11T01:19:04;101268.34;;;-1.39;70.91
43503;BME280;29098;48.184;16.298;2023-02-11T01:21:30;101273.50;;;-1.39;71.30
43503;BME280;29098;48.184;16.298;2023-02-11T01:23:55;101267.72;;;-1.46;71.44
43503;BME280;29098;48.184;16.298;2023-02-11T01:26:21;101257.41;;;-1.47;71.85
43503;BME280;29098;48.184;16.298;2023-02-11T01:28:46;101252.97;;;-1.44;71.81
43503;BME280;29098;48.184;16.298;2023-02-11T01:31:12;101248.66;;;-1.43;71.69
43503;BME280;29098;48.184;16.298;2023-02-11T01:33:37;101252.31;;;-1.49;72.17
43503;BME280;29098;48.184;16.298;2023-02-11T01:36:03;101248.44;;;-1.61;72.51
43503;BME280;29098;48.184;16.298;2023-02-11T01:38:29;101246.59;;;-1.57;72.58
43503;BME280;29098;48.184;16.298;2023-02-11T01:40:57;101248.38;;;-1.59;72.78
43503;BME280;29098;48.184;16.298;2023-02-11T01:43:23;101247.25;;;-1.52;72.84
43503;BME280;29098;48.184;16.298;2023-02-11T01:45:54;101241.25;;;-1.53;72.82
43503;BME280;29098;48.184;16.298;2023-02-11T01:48:22;101238.84;;;-1.57;73.05
43503;BME280;29098;48.184;16.298;2023-02-11T01:50:50;101237.94;;;-1.56;73.04
43503;BME280;29098;48.184;16.298;2023-02-11T01:53:17;101233.75;;;-1.60;73.60
43503;BME280;29098;48.184;16.298;2023-02-11T01:56:02;101231.50;;;-1.70;73.77
43503;BME280;29098;48.184;16.298;2023-02-11T01:59:02;101234.22;;;-1.73;74.17
43503;BME280;29098;48.184;16.298;2023-02-11T02:01:29;101229.13;;;-1.76;74.45
43503;BME280;29098;48.184;16.298;2023-02-11T02:03:58;101233.81;;;-1.62;73.80
43503;BME280;29098;48.184;16.298;2023-02-11T02:06:29;101232.25;;;-1.66;74.24
43503;BME280;29098;48.184;16.298;2023-02-11T02:09:17;101231.50;;;-1.70;74.65
43503;BME280;29098;48.184;16.298;2023-02-11T02:11:44;101224.53;;;-1.68;74.93
43503;BME280;29098;48.184;16.298;2023-02-11T02:14:09;101218.56;;;-1.70;74.69
43503;BME280;29098;48.184;16.298;2023-02-11T02:16:35;101219.34;;;-1.68;74.87
43503;BME280;29098;48.184;16.298;2023-02-11T02:19:06;101218.19;;;-1.59;74.71
43503;BME280;29098;48.184;16.298;2023-02-11T02:29:57;101202.06;;;-1.66;74.88
43503;BME280;29098;48.184;16.298;2023-02-11T02:37:57;101178.16;;;-1.96;75.98
43503;BME280;29098;48.184;16.298;2023-02-11T02:40:27;101178.53;;;-1.83;75.87
43503;BME280;29098;48.184;16.298;2023-02-11T02:42:53;101177.81;;;-1.87;76.02
43503;BME280;29098;48.184;16.298;2023-02-11T02:45:19;101171.75;;;-1.86;76.13
43503;BME280;29098;48.184;16.298;2023-02-11T02:47:44;101165.13;;;-1.69;76.69
43503;BME280;29098;48.184;16.298;2023-02-11T02:50:10;101164.06;;;-1.87;76.29
43503;BME280;29098;48.184;16.298;2023-02-11T02:55:18;101168.13;;;-1.80;76.51
43503;BME280;29098;48.184;16.298;2023-02-11T02:57:52;101161.47;;;-1.87;76.95
43503;BME280;29098;48.184;16.298;2023-02-11T03:00:27;101168.41;;;-1.89;77.25
43503;BME280;29098;48.184;16.298;2023-02-11T03:08:05;101159.72;;;-1.87;77.43
43503;BME280;29098;48.184;16.298;2023-02-11T03:10:35;101160.34;;;-1.80;77.33
43503;BME280;29098;48.184;16.298;2023-02-11T03:13:01;101155.28;;;-1.83;77.70
43503;BME280;29098;48.184;16.298;2023-02-11T03:15:28;101149.84;;;-1.75;77.49
43503;BME280;29098;48.184;16.298;2023-02-11T03:17:55;101149.88;;;-1.77;77.84
43503;BME280;29098;48.184;16.298;2023-02-11T03:20:22;101144.72;;;-1.77;77.96
43503;BME280;29098;48.184;16.298;2023-02-11T03:25:13;101144.13;;;-1.61;77.69
43503;BME280;29098;48.184;16.298;2023-02-11T03:30:07;101140.97;;;-1.46;77.52
43503;BME280;29098;48.184;16.298;2023-02-11T03:32:36;101126.47;;;-1.50;77.99
43503;BME280;29098;48.184;16.298;2023-02-11T03:35:16;101131.88;;;-1.34;77.96
43503;BME280;29098;48.184;16.298;2023-02-11T03:37:50;101124.47;;;-1.21;77.40
43503;BME280;29098;48.184;16.298;2023-02-11T03:40:18;101121.16;;;-1.02;77.09
43503;BME280;29098;48.184;16.298;2023-02-11T03:42:55;101118.03;;;-1.11;77.44
43503;BME280;29098;48.184;16.298;2023-02-11T03:45:22;101115.00;;;-1.00;76.75
43503;BME280;29098;48.184;16.298;2023-02-11T03:47:50;101102.00;;;-0.77;76.49
43503;BME280;29098;48.184;16.298;2023-02-11T03:50:17;101099.78;;;-0.66;75.43
43503;BME280;29098;48.184;16.298;2023-02-11T03:52:43;101091.31;;;-0.70;75.65
43503;BME280;29098;48.184;16.298;2023-02-11T03:55:10;101092.81;;;-0.64;75.44
43503;BME280;29098;48.184;16.298;2023-02-11T03:57:37;101084.84;;;-0.59;75.83
43503;BME280;29098;48.184;16.298;2023-02-11T04:00:02;101069.75;;;-0.49;75.60
43503;BME280;29098;48.184;16.298;2023-02-11T04:02:29;101070.47;;;-0.26;74.65
43503;BME280;29098;48.184;16.298;2023-02-11T04:04:55;101072.22;;;-0.08;73.81
43503;BME280;29098;48.184;16.298;2023-02-11T04:07:21;101061.91;;;0.10;73.13
43503;BME280;29098;48.184;16.298;2023-02-11T04:09:46;101074.88;;;0.29;72.38
43503;BME280;29098;48.184;16.298;2023-02-11T04:12:11;101072.97;;;0.33;71.92
43503;BME280;29098;48.184;16.298;2023-02-11T04:14:37;101083.19;;;0.55;70.99
43503;BME280;29098;48.184;16.298;2023-02-11T04:17:02;101080.97;;;0.65;70.71
43503;BME280;29098;48.184;16.298;2023-02-11T04:19:28;101089.06;;;0.59;70.96
43503;BME280;29098;48.184;16.298;2023-02-11T04:21:53;101088.75;;;0.65;70.59
43503;BME280;29098;48.184;16.298;2023-02-11T04:24:19;101082.75;;;0.64;70.53
43503;BME280;29098;48.184;16.298;2023-02-11T04:26:44;101077.38;;;0.67;70.50
43503;BME280;29098;48.184;16.298;2023-02-11T04:29:10;101079.91;;;0.69;70.38
43503;BME280;29098;48.184;16.298;2023-02-11T04:31:35;101081.94;;;0.81;69.61
43503;BME280;29098;48.184;16.298;2023-02-11T04:34:00;101076.13;;;0.76;70.09
43503;BME280;29098;48.184;16.298;2023-02-11T04:36:26;101078.09;;;0.71;70.02
43503;BME280;29098;48.184;16.298;2023-02-11T04:38:51;101072.44;;;0.80;69.53
43503;BME280;29098;48.184;16.298;2023-02-11T04:41:16;101066.19;;;0.85;69.31
43503;BME280;29098;48.184;16.298;2023-02-11T04:43:42;101070.31;;;0.89;69.24
43503;BME280;29098;48.184;16.298;2023-02-11T04:46:07;101069.53;;;0.87;68.99
43503;BME280;29098;48.184;16.298;2023-02-11T04:48:32;101075.28;;;0.93;68.64
43503;BME280;29098;48.184;16.298;2023-02-11T04:50:59;101083.06;;;0.93;68.86
43503;BME280;29098;48.184;16.298;2023-02-11T04:53:24;101079.25;;;1.01;68.28
43503;BME280;29098;48.184;16.298;2023-02-11T04:55:50;101081.78;;;1.20;68.04
43503;BME280;29098;48.184;16.298;2023-02-11T04:58:16;101081.00;;;1.18;67.59
43503;BME280;29098;48.184;16.298;2023-02-11T05:00:41;101068.44;;;1.26;67.38
43503;BME280;29098;48.184;16.298;2023-02-11T05:03:07;101058.06;;;1.26;67.11
43503;BME280;29098;48.184;16.298;2023-02-11T05:05:32;101056.75;;;1.35;66.92
43503;BME280;29098;48.184;16.298;2023-02-11T05:07:57;101067.34;;;1.48;66.31
43503;BME280;29098;48.184;16.298;2023-02-11T05:10:23;101060.09;;;1.37;66.62
43503;BME280;29098;48.184;16.298;2023-02-11T05:12:48;101077.44;;;1.54;66.05
43503;BME280;29098;48.184;16.298;2023-02-11T05:15:15;101070.25;;;1.42;66.53
43503;BME280;29098;48.184;16.298;2023-02-11T05:17:41;101061.16;;;1.50;65.89
43503;BME280;29098;48.184;16.298;2023-02-11T05:20:06;101070.56;;;1.53;65.75
43503;BME280;29098;48.184;16.298;2023-02-11T05:22:32;101074.09;;;1.68;64.85
43503;BME280;29098;48.184;16.298;2023-02-11T05:24:57;101068.22;;;1.64;65.23
43503;BME280;29098;48.184;16.298;2023-02-11T05:27:22;101078.16;;;1.74;64.56
43503;BME280;29098;48.184;16.298;2023-02-11T05:29:48;101072.59;;;1.80;63.77
43503;BME280;29098;48.184;16.298;2023-02-11T05:32:13;101073.28;;;1.68;64.79
43503;BME280;29098;48.184;16.298;2023-02-11T05:34:39;101068.16;;;1.66;64.45
43503;BME280;29098;48.184;16.298;2023-02-11T05:37:04;101079.16;;;1.71;64.21
43503;BME280;29098;48.184;16.298;2023-02-11T05:39:30;101067.41;;;1.80;63.77
43503;BME280;29098;48.184;16.298;2023-02-11T05:41:55;101072.78;;;1.77;63.55
43503;BME280;29098;48.184;16.298;2023-02-11T05:44:20;101061.03;;;1.70;63.84
43503;BME280;29098;48.184;16.298;2023-02-11T05:46:46;101058.03;;;1.77;63.40
43503;BME280;29098;48.184;16.298;2023-02-11T05:49:13;101058.59;;;1.83;63.01
43503;BME280;29098;48.184;16.298;2023-02-11T05:51:38;101054.41;;;1.80;63.05
43503;BME280;29098;48.184;16.298;2023-02-11T05:54:04;101059.78;;;1.77;63.39
43503;BME280;29098;48.184;16.298;2023-02-11T05:56:29;101061.53;;;1.76;63.27
43503;BME280;29098;48.184;16.298;2023-02-11T05:58:54;101065.97;;;1.74;62.91
43503;BME280;29098;48.184;16.298;2023-02-11T06:01:20;101056.25;;;1.78;62.98
43503;BME280;29098;48.184;16.298;2023-02-11T06:03:45;101055.50;;;1.76;63.38
43503;BME280;29098;48.184;16.298;2023-02-11T06:06:11;101047.53;;;1.79;63.05
43503;BME280;29098;48.184;16.298;2023-02-11T06:08:36;101045.44;;;1.70;63.49
43503;BME280;29098;48.184;16.298;2023-02-11T06:11:02;101041.50;;;1.78;63.36
43503;BME280;29098;48.184;16.298;2023-02-11T06:13:27;101030.53;;;1.89;62.61
43503;BME280;29098;48.184;16.298;2023-02-11T06:15:56;101032.00;;;1.94;62.09
43503;BME280;29098;48.184;16.298;2023-02-11T06:18:22;101029.00;;;1.85;62.96
43503;BME280;29098;48.184;16.298;2023-02-11T06:20:47;101024.41;;;1.90;62.39
43503;BME280;29098;48.184;16.298;2023-02-11T06:23:12;101018.25;;;1.91;62.54
43503;BME280;29098;48.184;16.298;2023-02-11T06:25:38;101016.59;;;1.90;62.61
43503;BME280;29098;48.184;16.298;2023-02-11T06:28:03;101011.28;;;1.92;62.81
43503;BME280;29098;48.184;16.298;2023-02-11T06:30:28;101012.22;;;2.07;62.39
43503;BME280;29098;48.184;16.298;2023-02-11T06:32:54;101007.34;;;2.01;62.39
43503;BME280;29098;48.184;16.298;2023-02-11T06:35:19;101008.03;;;2.04;62.38
43503;BME280;29098;48.184;16.298;2023-02-11T06:37:45;100996.34;;;2.12;62.17
43503;BME280;29098;48.184;16.298;2023-02-11T06:40:11;100990.53;;;2.23;61.98
43503;BME280;29098;48.184;16.298;2023-02-11T06:42:36;100983.66;;;2.22;62.18
43503;BME280;29098;48.184;16.298;2023-02-11T06:45:03;100992.22;;;2.24;61.76
43503;BME280;29098;48.184;16.298;2023-02-11T06:47:30;100992.63;;;2.32;61.32
43503;BME280;29098;48.184;16.298;2023-02-11T06:49:55;100995.06;;;2.35;61.11
43503;BME280;29098;48.184;16.298;2023-02-11T06:52:21;100985.00;;;2.29;60.69
43503;BME280;29098;48.184;16.298;2023-02-11T06:54:46;100998.00;;;2.29;60.92
43503;BME280;29098;48.184;16.298;2023-02-11T06:57:11;100991.00;;;2.45;60.20
43503;BME280;29098;48.184;16.298;2023-02-11T06:59:37;100995.09;;;2.50;60.42
43503;BME280;29098;48.184;16.298;2023-02-11T07:02:02;100982.72;;;2.53;60.07
43503;BME280;29098;48.184;16.298;2023-02-11T07:04:27;100984.88;;;2.46;60.62
43503;BME280;29098;48.184;16.298;2023-02-11T07:06:53;100972.31;;;2.53;60.04
43503;BME280;29098;48.184;16.298;2023-02-11T07:09:18;100963.03;;;2.49;60.32
43503;BME280;29098;48.184;16.298;2023-02-11T07:11:43;100949.38;;;2.60;59.26
43503;BME280;29098;48.184;16.298;2023-02-11T07:14:09;100954.63;;;2.74;58.60
43503;BME280;29098;48.184;16.298;2023-02-11T07:16:34;100947.66;;;2.90;57.99
43503;BME280;29098;48.184;16.298;2023-02-11T07:19:00;100934.19;;;2.97;57.12
43503;BME280;29098;48.184;16.298;2023-02-11T07:21:25;100946.81;;;3.04;56.29
43503;BME280;29098;48.184;16.298;2023-02-11T07:23:50;100944.03;;;3.21;55.46
43503;BME280;29098;48.184;16.298;2023-02-11T07:26:17;100949.63;;;3.29;55.08
43503;BME280;29098;48.184;16.298;2023-02-11T07:28:43;100942.50;;;3.46;54.45
43503;BME280;29098;48.184;16.298;2023-02-11T07:31:10;100949.47;;;3.46;54.49
43503;BME280;29098;48.184;16.298;2023-02-11T07:33:36;100953.38;;;3.53;54.46
43503;BME280;29098;48.184;16.298;2023-02-11T07:36:01;100950.78;;;3.53;54.32
43503;BME280;29098;48.184;16.298;2023-02-11T07:38:27;100943.81;;;3.53;54.61
43503;BME280;29098;48.184;16.298;2023-02-11T07:40:52;100938.94;;;3.62;54.29
43503;BME280;29098;48.184;16.298;2023-02-11T07:43:18;100943.56;;;3.71;53.36
43503;BME280;29098;48.184;16.298;2023-02-11T07:45:43;100937.91;;;3.64;53.70
43503;BME280;29098;48.184;16.298;2023-02-11T07:48:08;100943.91;;;3.79;53.45
43503;BME280;29098;48.184;16.298;2023-02-11T07:50:34;100937.75;;;3.80;52.61
43503;BME280;29098;48.184;16.298;2023-02-11T07:52:59;100955.94;;;3.82;52.79
43503;BME280;29098;48.184;16.298;2023-02-11T07:55:24;100964.75;;;3.94;52.87
43503;BME280;29098;48.184;16.298;2023-02-11T07:57:50;100962.69;;;3.99;52.38
43503;BME280;29098;48.184;16.298;2023-02-11T08:00:15;100964.75;;;3.94;52.69
43503;BME280;29098;48.184;16.298;2023-02-11T08:02:41;100966.03;;;4.01;52.44
43503;BME280;29098;48.184;16.298;2023-02-11T08:05:07;100980.03;;;4.00;52.59
43503;BME280;29098;48.184;16.298;2023-02-11T08:07:32;100984.97;;;3.90;52.58
43503;BME280;29098;48.184;16.298;2023-02-11T08:09:57;100986.25;;;3.97;52.25
43503;BME280;29098;48.184;16.298;2023-02-11T08:12:23;100991.91;;;4.04;52.20
43503;BME280;29098;48.184;16.298;2023-02-11T08:14:48;100989.31;;;4.04;51.85
43503;BME280;29098;48.184;16.298;2023-02-11T08:17:13;100977.28;;;4.16;51.51
43503;BME280;29098;48.184;16.298;2023-02-11T08:19:39;100981.09;;;4.10;51.87
43503;BME280;29098;48.184;16.298;2023-02-11T08:22:04;100976.72;;;4.11;51.97
43503;BME280;29098;48.184;16.298;2023-02-11T08:24:30;100973.81;;;4.16;51.73
43503;BME280;29098;48.184;16.298;2023-02-11T08:26:55;100970.25;;;4.17;51.66
43503;BME280;29098;48.184;16.298;2023-02-11T08:29:20;100966.06;;;4.14;51.57
43503;BME280;29098;48.184;16.298;2023-02-11T08:31:46;100959.00;;;4.16;51.87
43503;BME280;29098;48.184;16.298;2023-02-11T08:34:11;100979.66;;;4.19;51.35
43503;BME280;29098;48.184;16.298;2023-02-11T08:36:40;100975.34;;;4.05;51.92
43503;BME280;29098;48.184;16.298;2023-02-11T08:39:08;100970.00;;;4.07;51.79
43503;BME280;29098;48.184;16.298;2023-02-11T08:41:36;100978.81;;;4.19;51.97
43503;BME280;29098;48.184;16.298;2023-02-11T08:44:01;100980.91;;;4.14;51.07
43503;BME280;29098;48.184;16.298;2023-02-11T08:46:27;100976.63;;;4.13;50.75
43503;BME280;29098;48.184;16.298;2023-02-11T08:48:52;100979.91;;;4.29;50.49
43503;BME280;29098;48.184;16.298;2023-02-11T08:51:19;100988.25;;;4.34;50.71
43503;BME280;29098;48.184;16.298;2023-02-11T08:53:45;100974.75;;;4.55;49.94
43503;BME280;29098;48.184;16.298;2023-02-11T08:56:11;100965.88;;;4.58;50.22
43503;BME280;29098;48.184;16.298;2023-02-11T08:58:37;100972.13;;;4.68;49.96
43503;BME280;29098;48.184;16.298;2023-02-11T09:01:13;100978.63;;;4.62;49.78
43503;BME280;29098;48.184;16.298;2023-02-11T09:03:38;100976.41;;;4.56;49.98
43503;BME280;29098;48.184;16.298;2023-02-11T09:06:04;100971.50;;;4.64;50.41
43503;BME280;29098;48.184;16.298;2023-02-11T09:08:30;100964.50;;;4.65;50.51
43503;BME280;29098;48.184;16.298;2023-02-11T09:10:56;100964.00;;;4.73;50.30
43503;BME280;29098;48.184;16.298;2023-02-11T09:13:21;100966.72;;;4.84;50.00
43503;BME280;29098;48.184;16.298;2023-02-11T09:15:46;100975.59;;;4.94;49.77
43503;BME280;29098;48.184;16.298;2023-02-11T09:18:12;100968.47;;;4.97;49.59
43503;BME280;29098;48.184;16.298;2023-02-11T09:20:38;100963.88;;;5.00;49.84
43503;BME280;29098;48.184;16.298;2023-02-11T09:23:03;100954.19;;;5.02;49.95
43503;BME280;29098;48.184;16.298;2023-02-11T09:25:28;100948.94;;;5.15;49.88
43503;BME280;29098;48.184;16.298;2023-02-11T09:27:54;100952.69;;;5.37;49.55
43503;BME280;29098;48.184;16.298;2023-02-11T09:30:19;100952.63;;;5.50;48.77
43503;BME280;29098;48.184;16.298;2023-02-11T09:32:45;100950.41;;;5.57;49.12
43503;BME280;29098;48.184;16.298;2023-02-11T09:35:10;100954.63;;;5.46;49.07
43503;BME280;29098;48.184;16.298;2023-02-11T09:37:35;100938.56;;;5.40;49.24
43503;BME280;29098;48.184;16.298;2023-02-11T09:40:01;100948.16;;;5.39;49.43
43503;BME280;29098;48.184;16.298;2023-02-11T09:42:33;100946.91;;;5.32;49.69
43503;BME280;29098;48.184;16.298;2023-02-11T09:45:02;100940.41;;;5.38;49.58
43503;BME280;29098;48.184;16.298;2023-02-11T09:47:29;100935.31;;;5.36;49.81
43503;BME280;29098;48.184;16.298;2023-02-11T09:49:58;100941.28;;;5.25;50.10
43503;BME280;29098;48.184;16.298;2023-02-11T09:52:29;100881.91;;;5.14;50.36
43503;BME280;29098;48.184;16.298;2023-02-11T09:54:57;100921.66;;;5.06;50.63
43503;BME280;29098;48.184;16.298;2023-02-11T09:57:41;100927.50;;;5.10;50.58
43503;BME280;29098;48.184;16.298;2023-02-11T10:00:15;100923.94;;;5.24;50.48
43503;BME280;29098;48.184;16.298;2023-02-11T10:02:47;100928.63;;;5.32;50.10
43503;BME280;29098;48.184;16.298;2023-02-11T10:07:59;100926.09;;;5.30;50.44
43503;BME280;29098;48.184;16.298;2023-02-11T10:15:55;100929.16;;;5.61;49.21
43503;BME280;29098;48.184;16.298;2023-02-11T10:23:33;100912.88;;;6.07;47.79
43503;BME280;29098;48.184;16.298;2023-02-11T10:26:00;100899.06;;;6.05;47.59
43503;BME280;29098;48.184;16.298;2023-02-11T10:28:30;100905.56;;;6.35;46.84
43503;BME280;29098;48.184;16.298;2023-02-11T10:31:01;100902.22;;;6.33;46.87
43503;BME280;29098;48.184;16.298;2023-02-11T10:33:35;100887.72;;;6.40;46.68
43503;BME280;29098;48.184;16.298;2023-02-11T10:36:04;100883.00;;;6.68;45.81
43503;BME280;29098;48.184;16.298;2023-02-11T10:38:29;100874.41;;;6.89;45.77
43503;BME280;29098;48.184;16.298;2023-02-11T10:40:54;100874.53;;;6.98;45.08
43503;BME280;29098;48.184;16.298;2023-02-11T10:43:22;100853.94;;;7.05;44.79
43503;BME280;29098;48.184;16.298;2023-02-11T10:45:52;100859.66;;;6.99;44.92
43503;BME280;29098;48.184;16.298;2023-02-11T10:53:37;100856.88;;;7.01;44.58
43503;BME280;29098;48.184;16.298;2023-02-11T10:56:03;100869.06;;;6.90;44.98
43503;BME280;29098;48.184;16.298;2023-02-11T10:58:36;100861.56;;;6.85;44.62
43503;BME280;29098;48.184;16.298;2023-02-11T11:01:04;100864.53;;;7.04;44.56
43503;BME280;29098;48.184;16.298;2023-02-11T11:03:31;100859.97;;;7.29;43.72
43503;BME280;29098;48.184;16.298;2023-02-11T11:05:59;100850.06;;;7.32;43.46
43503;BME280;29098;48.184;16.298;2023-02-11T11:08:44;100851.81;;;7.76;42.80
43503;BME280;29098;48.184;16.298;2023-02-11T11:11:11;100844.03;;;7.53;42.62
43503;BME280;29098;48.184;16.298;2023-02-11T11:13:41;100851.22;;;7.39;42.74
43503;BME280;29098;48.184;16.298;2023-02-11T11:18:44;100855.72;;;7.49;41.98
43503;BME280;29098;48.184;16.298;2023-02-11T11:21:13;100826.16;;;7.47;42.02
43503;BME280;29098;48.184;16.298;2023-02-11T11:23:40;100816.44;;;7.59;41.50
43503;BME280;29098;48.184;16.298;2023-02-11T11:26:12;100821.91;;;7.67;40.93
43503;BME280;29098;48.184;16.298;2023-02-11T11:28:52;100815.41;;;7.50;41.30
43503;BME280;29098;48.184;16.298;2023-02-11T11:31:29;100800.41;;;7.52;41.50
43503;BME280;29098;48.184;16.298;2023-02-11T11:33:55;100779.53;;;7.72;41.46
43503;BME280;29098;48.184;16.298;2023-02-11T11:36:22;100780.38;;;7.93;40.40
43503;BME280;29098;48.184;16.298;2023-02-11T11:38:55;100780.19;;;7.85;40.73
43503;BME280;29098;48.184;16.298;2023-02-11T11:41:25;100770.75;;;8.04;40.56
43503;BME280;29098;48.184;16.298;2023-02-11T11:46:29;100761.59;;;7.77;40.66
43503;BME280;29098;48.184;16.298;2023-02-11T11:48:57;100765.78;;;7.25;40.81
43503;BME280;29098;48.184;16.298;2023-02-11T11:51:24;100747.03;;;7.30;40.72
43503;BME280;29098;48.184;16.298;2023-02-11T11:53:52;100747.84;;;7.42;40.37
43503;BME280;29098;48.184;16.298;2023-02-11T11:58:45;100743.41;;;7.43;40.83
43503;BME280;29098;48.184;16.298;2023-02-11T12:06:33;100740.13;;;7.29;41.53
43503;BME280;29098;48.184;16.298;2023-02-11T12:11:48;100712.97;;;7.19;41.63
43503;BME280;29098;48.184;16.298;2023-02-11T12:17:07;100717.94;;;7.54;41.67
43503;BME280;29098;48.184;16.298;2023-02-11T12:22:24;100725.25;;;7.72;42.15
43503;BME280;29098;48.184;16.298;2023-02-11T12:27:43;100723.13;;;7.66;42.21
43503;BME280;29098;48.184;16.298;2023-02-11T12:30:17;100722.22;;;7.77;42.44
43503;BME280;29098;48.184;16.298;2023-02-11T12:42:56;100725.75;;;7.45;41.88
43503;BME280;29098;48.184;16.298;2023-02-11T12:59:16;100704.94;;;9.07;36.30
43503;BME280;29098;48.184;16.298;2023-02-11T13:01:44;100732.78;;;9.00;36.23
43503;BME280;29098;48.184;16.298;2023-02-11T13:06:44;100717.34;;;8.25;37.68
43503;BME280;29098;48.184;16.298;2023-02-11T13:09:13;100714.19;;;7.68;38.65
43503;BME280;29098;48.184;16.298;2023-02-11T13:11:43;100707.50;;;7.64;38.76
43503;BME280;29098;48.184;16.298;2023-02-11T13:14:24;100679.25;;;7.14;39.42
43503;BME280;29098;48.184;16.298;2023-02-11T13:16:51;100721.28;;;7.57;39.10
43503;BME280;29098;48.184;16.298;2023-02-11T13:21:59;100739.19;;;7.73;39.41
43503;BME280;29098;48.184;16.298;2023-02-11T13:32:14;100733.34;;;7.26;41.03
43503;BME280;29098;48.184;16.298;2023-02-11T13:37:05;100723.81;;;6.93;42.05
43503;BME280;29098;48.184;16.298;2023-02-11T13:39:36;100708.03;;;6.71;42.47
43503;BME280;29098;48.184;16.298;2023-02-11T13:42:03;100716.03;;;6.58;42.81
43503;BME280;29098;48.184;16.298;2023-02-11T13:44:28;100720.97;;;6.84;42.46
43503;BME280;29098;48.184;16.298;2023-02-11T13:47:01;100728.47;;;6.89;42.27
43503;BME280;29098;48.184;16.298;2023-02-11T13:49:30;100731.28;;;6.97;42.36
43503;BME280;29098;48.184;16.298;2023-02-11T13:51:56;100724.72;;;7.03;42.18
43503;BME280;29098;48.184;16.298;2023-02-11T13:54:31;100727.81;;;7.08;42.35
43503;BME280;29098;48.184;16.298;2023-02-11T14:10:50;100732.09;;;7.09;42.50
43503;BME280;29098;48.184;16.298;2023-02-11T14:13:33;100722.31;;;7.11;42.58
43503;BME280;29098;48.184;16.298;2023-02-11T14:16:02;100747.34;;;7.04;43.39
43503;BME280;29098;48.184;16.298;2023-02-11T14:18:40;100730.72;;;6.94;43.19
43503;BME280;29098;48.184;16.298;2023-02-11T14:23:47;100733.03;;;6.64;43.61
43503;BME280;29098;48.184;16.298;2023-02-11T14:28:53;100720.44;;;6.58;44.24
43503;BME280;29098;48.184;16.298;2023-02-11T14:31:34;100719.34;;;6.49;44.48
43503;BME280;29098;48.184;16.298;2023-02-11T14:34:13;100702.69;;;6.50;44.97
43503;BME280;29098;48.184;16.298;2023-02-11T14:39:23;100698.88;;;6.54;45.32
43503;BME280;29098;48.184;16.298;2023-02-11T14:41:52;100723.88;;;6.47;45.61
43503;BME280;29098;48.184;16.298;2023-02-11T14:44:19;100703.41;;;6.52;45.86
43503;BME280;29098;48.184;16.298;2023-02-11T14:46:46;100713.41;;;6.47;46.46
43503;BME280;29098;48.184;16.298;2023-02-11T14:49:45;100717.22;;;6.43;46.74
43503;BME280;29098;48.184;16.298;2023-02-11T14:54:48;100712.94;;;6.30;47.35
43503;BME280;29098;48.184;16.298;2023-02-11T14:57:15;100726.41;;;6.26;47.93
43503;BME280;29098;48.184;16.298;2023-02-11T14:59:54;100725.34;;;6.06;48.80
43503;BME280;29098;48.184;16.298;2023-02-11T15:02:23;100711.50;;;6.03;49.01